Terminal Aerodrome Forecast
Issued by NWS Omaha/Valley, NE

Home | Current Version | Previous Version | Text Only | Print | Product List | Glossary On
Versions: 1 2 3 4 5 6 7 8 9 10 11 12 13 14 15 16 17 18 19 20
000
FTUS43 KOAX 301726
TAFLNK
TAF
KLNK 301726Z 3018/3118 14007KT P6SM SCT050 BKN100
     FM310800 15005KT P6SM BKN050 PROB30 3108/3114 5SM -TSRA
      BKN030CB
     FM311400 14009KT P6SM BKN060=

USA.gov is the U.S. government's official web portal to all federal, state and local government web resources and services.